Last 24 Hour KALB Observations

Last 24 hours of surface weather observations from the Albany County Airport. Observations taken by the National Weather Service.


		
KALB 200051Z 16012G20KT 10SM FEW045 FEW065 SCT200 BKN250 25/18 A2980 RMK AO2 PK
 WND 17026/2353 LTG DSNT S SLP092 T02500178=
KALB 200151Z 17011KT 10SM FEW065 SCT200 BKN250 24/18 A2982 RMK AO2 SLP096
 T02390178=
KALB 200251Z 18016G25KT 10SM FEW065 SCT200 BKN250 23/18 A2980 RMK AO2 SLP090
 T02330183 58001=
KALB 200351Z 17012G19KT 10SM FEW065 BKN120 OVC200 23/18 A2979 RMK AO2 PK WND
 18028/0303 LTG DSNT S SLP085 OCNL LTGIC DSNT SE CB DSNT SE MOV NE T02280178=
KALB 200451Z 18010G18KT 10SM FEW060 BKN120 OVC200 22/17 A2979 RMK AO2 LTG DSNT
 S SLP085 FRQ LTGIC DSNT S CB DSNT S MOV NE T02170167 403000094=
KALB 200551Z 18014G20KT 10SM FEW080 FEW120 BKN130 OVC190 21/17 A2978 RMK AO2
 SLP081 T02110167 10261 20211 56008=
KALB 200628Z 18016G24KT 10SM BKN011 BKN140 OVC180 21/17 A2978 RMK AO2 T02060172=
KALB 200628Z 18016G24KT 10SM BKN011 BKN140 OVC180 21/17 A2978=
KALB 200651Z 19013G19KT 10SM BKN011 OVC140 21/18 A2977 RMK AO2 SLP080 T02060178=
KALB 200744Z 18007KT 10SM TS SCT011 SCT037CB OVC110 20/18 A2978 RMK AO2 LTG
 DSNT SW RAB38E44 TSB44 OCNL LTGIC VC SW-W TS VC SW-W MOV NE P0000 T02000178=
KALB 200744Z 18007KT 10SM TS SCT011 SCT037CB OVC110 20/18 A2978=
KALB 200809Z 18009KT 3SM RA SCT011 BKN043CB OVC055 20/18 A2978 RMK AO2 TSE09
 OCNL LTGIC DSNT SW CB OHD AND DSNT SW MOV NE P0002 T02000178=
KALB 200809Z 18009KT 3SM RA SCT011 BKN043CB OVC055 20/18 A2978=
KALB 200809Z COR 18009KT 3SM RA BR SCT011 BKN043CB OVC055 20/18 A2978 RMK AO2
 TSE09 OCNL LTGIC DSNT SW CB OHD AND DSNT SW MOV NE P0002 T02000178=
KALB 200809Z COR 18009KT 3SM RA BR SCT011 BKN043CB OVC055 20/18 A2978=
KALB 200851Z 17008KT 10SM BKN050 OVC075 19/18 A2978 RMK AO2 LTG DSNT N AND NE
 RAE37 TSE09 SLP081 OCNL LTGIC DSNT NE CB DSNT NE MOV NE PRESENT WX VCSH P0005
 60005 T01940178 58000=
KALB 200923Z 18008KT 6SM -TSRA BR FEW038 BKN048CB OVC070 19/18 A2979 RMK AO2
 RAB0853 TSB23 OCNL LTGICCG VC S-SW TS VC S-SW MOV NE P0003 T01940178=
KALB 200923Z 18008KT 6SM -TSRA BR FEW038 BKN048CB OVC070 19/18 A2979=
KALB 200945Z 18009KT 5SM -RA BR SCT045 BKN070 OVC085 19/18 A2979 RMK AO2
 RAB0853 TSB23E45 P0005=
KALB 200945Z 18009KT 5SM -RA BR SCT045 BKN070 OVC085 19/18 A2979=
KALB 200951Z 17010KT 7SM -RA SCT045 BKN070 OVC100 19/18 A2979 RMK AO2 RAB0853
 TSB23E45 SLP085 P0006 T01940178=
KALB 201051Z 16009KT 10SM -RA FEW045 BKN090 OVC100 19/17 A2979 RMK AO2 SLP085
 P0006 T01890167=
KALB 201151Z 17006KT 10SM SCT065 OVC100 19/17 A2978 RMK AO2 RAE31 SLP083 P0000
 60017 70031 T01890167 10211 20189 50002=
KALB 201251Z 20006KT 7SM -RA SCT055 OVC070 18/16 A2978 RMK AO2 RAB38 SLP082
 P0001 T01830161=
KALB 201351Z 18010KT 10SM FEW040 SCT060 SCT250 21/18 A2975 RMK AO2 RAE24 SLP073
 P0000 T02060183=
KALB 201451Z 18009KT 10SM FEW018 SCT032 BKN039 23/18 A2974 RMK AO2 SLP068 60001
 T02280178 58015=
KALB 201551Z 24010KT 10SM SCT032 SCT045 BKN060 26/16 A2973 RMK AO2 PK WND
 23027/1540 SLP066 T02560161=
KALB 201651Z 22011KT 10SM FEW045 BKN090 BKN150 26/14 A2972 RMK AO2 SLP063
 T02560144=
KALB 201751Z 23011G19KT 10SM FEW045 SCT085 SCT250 28/15 A2969 RMK AO2 SLP052
 60001 T02780150 10278 20183 58017=
KALB 201851Z 20012G20KT 10SM FEW045 BKN080 BKN150 27/14 A2967 RMK AO2 PK WND
 19026/1819 SLP046 T02670139=
KALB 201951Z 33008KT 10SM SCT060 BKN075 BKN095 26/16 A2967 RMK AO2 SLP044
 T02610156=
KALB 202051Z 34003KT 10SM BKN065 BKN080 BKN100 BKN250 25/16 A2966 RMK AO2
 RAB30E47 SLP041 P0000 60000 T02500161 56011=
KALB 202151Z 31015G25KT 10SM FEW043 BKN070 BKN100 BKN250 24/15 A2967 RMK AO2
 SLP046 T02390150=
KALB 202251Z 30016G24KT 10SM FEW043 SCT080 SCT100 BKN250 22/13 A2971 RMK AO2 PK
 WND 32026/2153 SLP059 T02220133=
KALB 202351Z 31016G27KT 10SM BKN085 BKN250 20/10 A2974 RMK AO2 PK WND
 31030/2337 SLP071 60000 T02000100 10283 20200 53029=
KALB 210051Z 30017G26KT 10SM SCT085 SCT100 BKN250 18/08 A2979 RMK AO2 PK WND
 30032/0023 SLP085 T01780083=